South Russell, Ohio
Current Conditions -  °F | °C
As of 2:45 PM on Tuesday 21 Oct 2014 (Local Time) from KCGF Reporting Station
Overcast Overcast  
Wind Chill: 50°   Ceiling: 1200
Heat Index: 50°   Visibility: 7mi
Dew Point: 46°   Wind: 18mph
Humidity: 87%   Direction: 350°N
Pressure: 29.96"   Gusts: NA
Location:  41.4475°N, 81.4018°W
Report Text: KCGF 211845Z 35016KT 7SM SCT009 BKN012 OVC020 10/08 A2996
Loading
Personal Weather Stations






























Interactive Weather Map
Tropical Storm Tracking
New forecast layout! Learn more

10-Day Weather Forecast

Advertisements
Track Severe Weather on mobile